Time;durP1;ratioP1;P1;durP2;ratioP2;P2;SDS_P1;SDS_P2;PMS_P1;PMS_P2;Temp;Humidity;BMP_temperature;BMP_pressure;BME280_temperature;BME280_humidity;BME280_pressure;Samples;Min_cycle;Max_cycle;Signal;HPM_P1;HPM_P2
2023/04/02 00:01:37;;;;;;;11.00;5.75;;;;;;;;;;8306093;28;20041;-82
2023/04/02 00:05:51;;;;;;;9.73;6.15;;;;;;;;;;8329636;28;20046;-82
2023/04/02 00:09:54;;;;;;;10.55;5.95;;;;;;;;;;8329133;28;20046;-81
2023/04/02 00:14:01;;;;;;;12.60;6.82;;;;;;;;;;8327832;28;20051;-81
2023/04/02 00:18:05;;;;;;;9.85;5.63;;;;;;;;;;8495743;22;20058;-81
2023/04/02 00:22:14;;;;;;;13.90;7.65;;;;;;;;;;8297388;28;20191;-83
2023/04/02 00:26:29;;;;;;;11.82;5.63;;;;;;;;;;8297351;28;20049;-82
2023/04/02 00:30:33;;;;;;;11.95;5.47;;;;;;;;;;8297234;28;20050;-80
2023/04/02 00:34:38;;;;;;;10.38;5.63;;;;;;;;;;8296688;28;20095;-80
2023/04/02 00:38:42;;;;;;;9.93;4.97;;;;;;;;;;8332691;28;20605;-81
2023/04/02 00:42:46;;;;;;;10.90;5.57;;;;;;;;;;8360337;28;20044;-80
2023/04/02 00:46:51;;;;;;;9.10;5.30;;;;;;;;;;8336401;28;20055;-81
2023/04/02 00:50:55;;;;;;;12.38;6.05;;;;;;;;;;8362285;28;20476;-80
2023/04/02 00:55:05;;;;;;;12.00;6.78;;;;;;;;;;8361405;28;20053;-80
2023/04/02 00:59:19;;;;;;;11.30;6.07;;;;;;;;;;8361370;28;20056;-82
2023/04/02 01:03:33;;;;;;;11.80;5.95;;;;;;;;;;8361453;28;20143;-83
2023/04/02 01:07:51;;;;;;;10.43;5.95;;;;;;;;;;8361207;28;20109;-83
2023/04/02 01:12:11;;;;;;;12.95;5.65;;;;;;;;;;8361378;28;20439;-80
2023/04/02 01:16:20;;;;;;;11.20;5.70;;;;;;;;;;8361574;28;20056;-81
2023/04/02 01:21:03;;;;;;;11.85;6.63;;;;;;;;;;8361901;28;20049;-80
2023/04/02 01:25:07;;;;;;;10.18;6.00;;;;;;;;;;8329096;28;20050;-81
2023/04/02 01:29:14;;;;;;;15.32;6.68;;;;;;;;;;8361457;28;20507;-82
2023/04/02 01:33:16;;;;;;;13.40;6.93;;;;;;;;;;8361298;28;20069;-85
2023/04/02 01:37:33;;;;;;;16.50;7.43;;;;;;;;;;8360764;28;20377;-82
2023/04/02 01:41:41;;;;;;;14.85;6.60;;;;;;;;;;8361190;28;20047;-84
2023/04/02 01:45:45;;;;;;;14.93;7.28;;;;;;;;;;8365103;28;20055;-86
2023/04/02 01:49:48;;;;;;;12.15;6.82;;;;;;;;;;8367359;28;20045;-82
2023/04/02 01:53:51;;;;;;;14.32;7.70;;;;;;;;;;8365921;28;20416;-80
2023/04/02 01:57:55;;;;;;;15.23;7.45;;;;;;;;;;8366507;28;20087;-81
2023/04/02 02:02:02;;;;;;;13.88;7.40;;;;;;;;;;8366632;28;20045;-83
2023/04/02 02:06:06;;;;;;;14.88;7.15;;;;;;;;;;8366466;28;20469;-80
2023/04/02 02:10:14;;;;;;;15.05;6.93;;;;;;;;;;8366859;28;20081;-82
2023/04/02 02:14:19;;;;;;;13.43;7.53;;;;;;;;;;8366090;28;20047;-81
2023/04/02 02:18:24;;;;;;;11.50;6.30;;;;;;;;;;8366250;28;20053;-81
2023/04/02 02:22:30;;;;;;;13.55;7.30;;;;;;;;;;8365499;28;20114;-81
2023/04/02 02:26:35;;;;;;;13.65;6.85;;;;;;;;;;8365890;28;20044;-81
2023/04/02 02:30:42;;;;;;;11.73;6.90;;;;;;;;;;8365625;28;20049;-80
2023/04/02 02:34:54;;;;;;;12.68;6.90;;;;;;;;;;8365713;28;20534;-81
2023/04/02 02:38:58;;;;;;;;;;;;;;;;;;8365988;28;20408;-83
2023/04/02 02:43:04;;;;;;;12.80;6.07;;;;;;;;;;8333403;28;19921;-81
2023/04/02 02:47:12;;;;;;;14.15;7.25;;;;;;;;;;8359697;28;20048;-82
2023/04/02 02:51:23;;;;;;;11.18;6.13;;;;;;;;;;8364023;28;20041;-82
2023/04/02 02:55:31;;;;;;;13.55;6.35;;;;;;;;;;8364309;28;20049;-81
2023/04/02 02:59:35;;;;;;;8.68;5.07;;;;;;;;;;8364503;28;20124;-82
2023/04/02 03:03:38;;;;;;;12.15;5.47;;;;;;;;;;8365005;28;20047;-83
2023/04/02 03:07:43;;;;;;;9.93;5.65;;;;;;;;;;8364563;28;20085;-81
2023/04/02 03:11:53;;;;;;;8.90;5.03;;;;;;;;;;8364624;28;20116;-80
2023/04/02 03:16:02;;;;;;;9.05;4.72;;;;;;;;;;8363920;28;20053;-85
2023/04/02 03:20:14;;;;;;;11.05;5.70;;;;;;;;;;8364311;28;20420;-81
2023/04/02 03:24:28;;;;;;;13.82;5.90;;;;;;;;;;8364023;28;20037;-82
2023/04/02 03:28:34;;;;;;;15.45;6.30;;;;;;;;;;8363692;28;20052;-81
2023/04/02 03:32:40;;;;;;;13.52;6.78;;;;;;;;;;8364291;28;20404;-83
2023/04/02 03:36:52;;;;;;;13.50;7.03;;;;;;;;;;8363573;28;20052;-82
2023/04/02 03:41:01;;;;;;;13.35;6.60;;;;;;;;;;8363800;28;20059;-81
2023/04/02 03:45:11;;;;;;;14.43;7.43;;;;;;;;;;8363412;28;20041;-81
2023/04/02 03:49:25;;;;;;;15.80;7.93;;;;;;;;;;8363537;28;20473;-81
2023/04/02 03:53:31;;;;;;;17.52;8.32;;;;;;;;;;8362966;28;20404;-85
2023/04/02 03:57:38;;;;;;;17.35;8.82;;;;;;;;;;8362793;28;20049;-81
2023/04/02 04:01:46;;;;;;;13.38;5.97;;;;;;;;;;8338605;28;20037;-81
2023/04/02 04:05:51;;;;;;;16.15;7.63;;;;;;;;;;8362888;28;20397;-79
2023/04/02 04:09:55;;;;;;;14.98;6.97;;;;;;;;;;8353928;28;20052;-82
2023/04/02 04:14:03;;;;;;;12.23;6.68;;;;;;;;;;8352447;28;20052;-81
2023/04/02 04:18:18;;;;;;;11.85;6.45;;;;;;;;;;8333885;28;20056;-85
2023/04/02 04:22:31;;;;;;;12.18;6.07;;;;;;;;;;8353203;28;20045;-83
2023/04/02 04:26:42;;;;;;;14.43;7.00;;;;;;;;;;8355213;28;20045;-81
2023/04/02 04:30:52;;;;;;;10.68;6.03;;;;;;;;;;8361557;28;20048;-83
2023/04/02 04:34:59;;;;;;;11.90;6.03;;;;;;;;;;8326463;28;20041;-80
2023/04/02 04:39:13;;;;;;;10.23;5.28;;;;;;;;;;8317708;28;20048;-83
2023/04/02 04:43:19;;;;;;;10.00;4.60;;;;;;;;;;8344183;28;20400;-87
2023/04/02 04:47:29;;;;;;;11.10;5.88;;;;;;;;;;8323224;28;20393;-80
2023/04/02 04:51:38;;;;;;;11.75;5.93;;;;;;;;;;8305317;28;20099;-82
2023/04/02 04:55:44;;;;;;;13.77;6.28;;;;;;;;;;8319293;28;20052;-80
2023/04/02 04:59:55;;;;;;;10.38;5.25;;;;;;;;;;8336391;28;20041;-82
2023/04/02 05:04:03;;;;;;;10.35;5.45;;;;;;;;;;8322519;28;20496;-83
2023/04/02 05:08:12;;;;;;;11.10;5.60;;;;;;;;;;8351524;28;20045;-81
2023/04/02 05:12:22;;;;;;;11.57;5.50;;;;;;;;;;8349246;28;20513;-83
2023/04/02 05:16:31;;;;;;;9.30;5.00;;;;;;;;;;8334658;28;20053;-81
2023/04/02 05:20:42;;;;;;;12.95;5.78;;;;;;;;;;8329150;28;20477;-80
2023/04/02 05:24:58;;;;;;;9.75;5.43;;;;;;;;;;8329178;28;20118;-80
2023/04/02 05:29:06;;;;;;;9.90;5.30;;;;;;;;;;8339921;28;20519;-80
2023/04/02 05:33:21;;;;;;;13.27;6.60;;;;;;;;;;8351057;28;20053;-82
2023/04/02 05:37:28;;;;;;;10.60;5.65;;;;;;;;;;8335332;28;20072;-82
2023/04/02 05:41:35;;;;;;;14.52;6.57;;;;;;;;;;8352487;28;20052;-82
2023/04/02 05:45:42;;;;;;;10.18;5.43;;;;;;;;;;8352620;28;20049;-80
2023/04/02 05:49:50;;;;;;;13.15;5.88;;;;;;;;;;8354849;28;20135;-82
2023/04/02 05:53:57;;;;;;;10.48;4.82;;;;;;;;;;8367294;28;20048;-86
2023/04/02 05:58:06;;;;;;;8.88;5.25;;;;;;;;;;8340327;28;20049;-81
2023/04/02 06:02:21;;;;;;;11.68;5.70;;;;;;;;;;8367317;28;20056;-83
2023/04/02 06:06:42;;;;;;;15.07;5.72;;;;;;;;;;8366354;28;20143;-80
2023/04/02 06:10:53;;;;;;;15.07;6.35;;;;;;;;;;8344644;28;20052;-81
2023/04/02 06:14:56;;;;;;;10.07;5.20;;;;;;;;;;8359338;28;20057;-81
2023/04/02 06:18:59;;;;;;;11.93;5.70;;;;;;;;;;8365511;28;20067;-85
2023/04/02 06:23:07;;;;;;;5.57;2.70;;;;;;;;;;8366146;28;20057;-80
2023/04/02 06:27:18;;;;;;;9.93;5.35;;;;;;;;;;8365839;28;20115;-83
2023/04/02 06:31:28;;;;;;;11.60;6.45;;;;;;;;;;8341189;28;20044;-81
2023/04/02 06:35:32;;;;;;;14.07;7.13;;;;;;;;;;8365803;28;20045;-81
2023/04/02 06:39:35;;;;;;;11.40;5.82;;;;;;;;;;8365486;28;20065;-81
2023/04/02 06:43:44;;;;;;;9.65;5.25;;;;;;;;;;8365703;28;20404;-86
2023/04/02 06:47:50;;;;;;;11.07;6.53;;;;;;;;;;8364814;28;20124;-82
2023/04/02 06:51:56;;;;;;;9.95;5.20;;;;;;;;;;8364514;28;20049;-81
2023/04/02 06:56:04;;;;;;;7.70;4.55;;;;;;;;;;8365150;28;20053;-81
2023/04/02 07:00:24;;;;;;;11.02;5.90;;;;;;;;;;8352067;28;20049;-86
2023/04/02 07:04:27;;;;;;;9.65;5.80;;;;;;;;;;8364521;28;20041;-84
2023/04/02 07:08:31;;;;;;;11.90;6.43;;;;;;;;;;8363589;28;20048;-81
2023/04/02 07:12:34;;;;;;;12.73;6.10;;;;;;;;;;8364769;28;20051;-80
2023/04/02 07:16:39;;;;;;;11.45;6.32;;;;;;;;;;8363630;28;20084;-81
2023/04/02 07:20:42;;;;;;;11.05;6.55;;;;;;;;;;8350416;28;20414;-80
2023/04/02 07:24:46;;;;;;;11.77;5.93;;;;;;;;;;8313068;28;20045;-83
2023/04/02 07:28:49;;;;;;;8.32;4.47;;;;;;;;;;8318408;28;20382;-82
2023/04/02 07:32:53;;;;;;;12.02;6.03;;;;;;;;;;8334650;28;20052;-80
2023/04/02 07:36:56;;;;;;;14.95;7.57;;;;;;;;;;8309815;28;20050;-80
2023/04/02 07:41:05;;;;;;;8.40;5.50;;;;;;;;;;8312191;28;20082;-82
2023/04/02 07:45:09;;;;;;;12.20;7.05;;;;;;;;;;8353100;28;20071;-81
2023/04/02 07:49:14;;;;;;;11.02;5.63;;;;;;;;;;8355228;28;20183;-81
2023/04/02 07:53:30;;;;;;;10.07;5.18;;;;;;;;;;8357689;28;20143;-81
2023/04/02 07:57:33;;;;;;;10.73;6.00;;;;;;;;;;8304484;28;20095;-82
2023/04/02 08:01:36;;;;;;;13.73;4.40;;;;;;;;;;8310517;28;20041;-81
2023/04/02 08:05:41;;;;;;;17.05;10.15;;;;;;;;;;8318760;28;20075;-82
2023/04/02 08:09:44;;;;;;;10.00;5.47;;;;;;;;;;8320460;28;20050;-84
2023/04/02 08:13:47;;;;;;;3.03;2.30;;;;;;;;;;8320269;28;20057;-81
2023/04/02 08:17:50;;;;;;;7.18;3.80;;;;;;;;;;8315417;28;20509;-85
2023/04/02 08:21:55;;;;;;;8.52;3.97;;;;;;;;;;8319219;28;20056;-80
2023/04/02 08:25:58;;;;;;;8.90;5.38;;;;;;;;;;8318469;28;20057;-81
2023/04/02 08:30:01;;;;;;;7.93;4.85;;;;;;;;;;8322602;28;20053;-82
2023/04/02 08:34:05;;;;;;;6.40;4.53;;;;;;;;;;8308719;28;20045;-82
2023/04/02 08:38:13;;;;;;;4.80;3.00;;;;;;;;;;8324600;28;20069;-81
2023/04/02 08:42:24;;;;;;;4.70;2.53;;;;;;;;;;8324588;28;20543;-82
2023/04/02 08:46:33;;;;;;;4.30;2.47;;;;;;;;;;8322953;28;20053;-81
2023/04/02 08:50:39;;;;;;;3.75;2.20;;;;;;;;;;8317569;28;20128;-83
2023/04/02 08:54:43;;;;;;;2.78;2.15;;;;;;;;;;8312308;28;20049;-82
2023/04/02 08:58:50;;;;;;;3.33;2.15;;;;;;;;;;8316161;28;20045;-81
2023/04/02 09:02:56;;;;;;;3.80;2.50;;;;;;;;;;8323610;28;20054;-83
2023/04/02 09:07:00;;;;;;;4.03;2.28;;;;;;;;;;8308581;28;20069;-82
2023/04/02 09:11:08;;;;;;;4.82;2.58;;;;;;;;;;8324382;28;20049;-81
2023/04/02 09:15:19;;;;;;;6.60;3.53;;;;;;;;;;8309180;28;20049;-83
2023/04/02 09:19:23;;;;;;;6.95;3.65;;;;;;;;;;8313212;28;20046;-82
2023/04/02 09:23:28;;;;;;;4.10;2.42;;;;;;;;;;8317513;28;20568;-83
2023/04/02 09:27:34;;;;;;;2.83;1.58;;;;;;;;;;8315969;28;20041;-86
2023/04/02 09:31:40;;;;;;;4.53;2.65;;;;;;;;;;8318760;28;20132;-82
2023/04/02 09:35:56;;;;;;;4.03;2.80;;;;;;;;;;8321728;28;20059;-81
2023/04/02 09:40:15;;;;;;;4.07;2.53;;;;;;;;;;8323705;28;20050;-81
2023/04/02 09:44:23;;;;;;;4.90;2.45;;;;;;;;;;8323337;28;20583;-81
2023/04/02 09:48:30;;;;;;;5.00;2.55;;;;;;;;;;8310800;28;20050;-82
2023/04/02 09:52:33;;;;;;;3.67;2.22;;;;;;;;;;8308132;28;20061;-81
2023/04/02 09:56:37;;;;;;;4.63;2.60;;;;;;;;;;8323026;28;20052;-84
2023/04/02 10:00:50;;;;;;;4.30;2.53;;;;;;;;;;8316775;28;20197;-82
2023/04/02 10:04:53;;;;;;;3.88;2.47;;;;;;;;;;8331929;28;20049;-81
2023/04/02 10:08:57;;;;;;;4.25;2.53;;;;;;;;;;8310426;28;20132;-83
2023/04/02 10:13:04;;;;;;;3.47;2.35;;;;;;;;;;8326270;28;20409;-81
2023/04/02 10:17:15;;;;;;;3.10;2.08;;;;;;;;;;8317639;28;20061;-82
2023/04/02 10:21:23;;;;;;;1.97;1.60;;;;;;;;;;8325066;28;20440;-84
2023/04/02 10:25:32;;;;;;;3.38;1.92;;;;;;;;;;8313361;28;20049;-80
2023/04/02 10:29:49;;;;;;;6.70;2.83;;;;;;;;;;8314667;28;20072;-82
2023/04/02 10:34:01;;;;;;;4.70;2.50;;;;;;;;;;8314266;28;20127;-82
2023/04/02 10:38:33;;;;;;;7.10;3.78;;;;;;;;;;8318154;28;20041;-87
2023/04/02 10:42:42;;;;;;;5.75;3.08;;;;;;;;;;8314748;28;20069;-82
2023/04/02 10:46:54;;;;;;;3.88;2.78;;;;;;;;;;8311015;28;20057;-84
2023/04/02 10:51:03;;;;;;;4.38;2.33;;;;;;;;;;8314976;28;20102;-86
2023/04/02 10:55:16;;;;;;;5.30;3.10;;;;;;;;;;8344165;28;20136;-83
2023/04/02 10:59:24;;;;;;;5.93;3.45;;;;;;;;;;8352538;28;20114;-81
2023/04/02 11:03:35;;;;;;;3.47;2.45;;;;;;;;;;8328579;28;20488;-82
2023/04/02 11:07:51;;;;;;;4.82;3.10;;;;;;;;;;8326562;28;20136;-81
2023/04/02 11:11:56;;;;;;;5.88;3.65;;;;;;;;;;8323655;28;20060;-81
2023/04/02 11:15:59;;;;;;;7.70;3.58;;;;;;;;;;8333219;28;20058;-86
2023/04/02 11:20:36;;;;;;;6.65;3.95;;;;;;;;;;8328522;28;20099;-80
2023/04/02 11:24:44;;;;;;;6.95;3.85;;;;;;;;;;8352142;28;20087;-87
2023/04/02 11:28:49;;;;;;;7.95;3.60;;;;;;;;;;8325453;28;20050;-81
2023/04/02 11:32:55;;;;;;;6.32;3.53;;;;;;;;;;8313626;28;20049;-81
2023/04/02 11:37:02;;;;;;;15.10;6.47;;;;;;;;;;8334630;28;20058;-81
2023/04/02 11:41:06;;;;;;;14.07;5.57;;;;;;;;;;8323141;28;20489;-80
2023/04/02 11:45:45;;;;;;;13.75;6.68;;;;;;;;;;8310782;28;20417;-81
2023/04/02 11:50:06;;;;;;;9.85;4.38;;;;;;;;;;8301224;28;20062;-86
2023/04/02 11:54:23;;;;;;;10.50;5.53;;;;;;;;;;8352456;28;20135;-83
2023/04/02 11:58:44;;;;;;;13.82;6.95;;;;;;;;;;8358233;28;20044;-81
2023/04/02 12:03:02;;;;;;;13.98;6.18;;;;;;;;;;8363099;28;20048;-87
2023/04/02 12:07:33;;;;;;;8.13;4.93;;;;;;;;;;8361810;28;20037;-81
2023/04/02 12:11:39;;;;;;;9.20;5.05;;;;;;;;;;8361314;28;20049;-80
2023/04/02 12:15:46;;;;;;;12.02;6.28;;;;;;;;;;8302233;28;20142;-82
2023/04/02 12:19:53;;;;;;;12.98;5.82;;;;;;;;;;8309921;28;20049;-80
2023/04/02 12:23:59;;;;;;;13.52;7.40;;;;;;;;;;8321124;28;20056;-82
2023/04/02 12:28:13;;;;;;;11.13;6.40;;;;;;;;;;8316005;28;20049;-82
2023/04/02 12:32:22;;;;;;;19.92;8.68;;;;;;;;;;8328497;28;20049;-81
2023/04/02 12:36:25;;;;;;;16.92;8.60;;;;;;;;;;8312363;28;20091;-80
2023/04/02 12:40:29;;;;;;;19.83;9.50;;;;;;;;;;8310241;28;20055;-81
2023/04/02 12:44:32;;;;;;;13.88;7.50;;;;;;;;;;8309323;28;20050;-81
2023/04/02 12:48:39;;;;;;;21.98;11.07;;;;;;;;;;8327708;28;20102;-80
2023/04/02 12:52:45;;;;;;;11.82;6.65;;;;;;;;;;8320167;28;20049;-82
2023/04/02 12:56:49;;;;;;;15.93;7.65;;;;;;;;;;8313365;28;20060;-84
2023/04/02 13:00:52;;;;;;;23.27;11.68;;;;;;;;;;8316928;28;20046;-81
2023/04/02 13:05:00;;;;;;;40.72;13.45;;;;;;;;;;8323731;28;20053;-83
2023/04/02 13:09:06;;;;;;;15.38;8.05;;;;;;;;;;8309539;28;20054;-81
2023/04/02 13:13:16;;;;;;;24.75;9.75;;;;;;;;;;8310546;28;20168;-83
2023/04/02 13:17:41;;;;;;;16.48;6.97;;;;;;;;;;8316197;28;20061;-81
2023/04/02 13:21:46;;;;;;;12.82;6.20;;;;;;;;;;8321630;28;20038;-81
2023/04/02 13:25:56;;;;;;;12.75;6.50;;;;;;;;;;8323377;28;20079;-80
2023/04/02 13:30:08;;;;;;;24.65;10.48;;;;;;;;;;8321135;28;20045;-81
2023/04/02 13:34:12;;;;;;;17.90;9.85;;;;;;;;;;8319747;28;20413;-81
2023/04/02 13:38:16;;;;;;;11.63;6.63;;;;;;;;;;8314377;28;20085;-81
2023/04/02 13:42:20;;;;;;;9.77;5.18;;;;;;;;;;8311769;28;20041;-82
2023/04/02 13:46:25;;;;;;;7.55;4.50;;;;;;;;;;8302028;28;20533;-83
2023/04/02 13:50:30;;;;;;;7.60;4.72;;;;;;;;;;8313570;28;20107;-87
2023/04/02 13:54:47;;;;;;;11.20;6.38;;;;;;;;;;8322733;28;20053;-81
2023/04/02 13:58:52;;;;;;;11.75;5.60;;;;;;;;;;8327053;28;20052;-82
2023/04/02 14:03:01;;;;;;;7.63;4.65;;;;;;;;;;8344271;28;20041;-86
2023/04/02 14:07:26;;;;;;;12.25;6.60;;;;;;;;;;8366575;28;20511;-81
2023/04/02 14:11:44;;;;;;;11.98;5.90;;;;;;;;;;8352240;28;20053;-84
2023/04/02 14:16:05;;;;;;;10.52;5.82;;;;;;;;;;8355552;28;20144;-85
2023/04/02 14:20:19;;;;;;;10.88;6.38;;;;;;;;;;8348358;28;20050;-85
2023/04/02 14:24:29;;;;;;;12.10;6.28;;;;;;;;;;8325090;28;20049;-81
2023/04/02 14:28:41;;;;;;;12.85;6.15;;;;;;;;;;8366177;28;20051;-87
2023/04/02 14:32:53;;;;;;;7.97;4.35;;;;;;;;;;8366213;28;20431;-81
2023/04/02 14:37:10;;;;;;;7.30;4.50;;;;;;;;;;8346808;28;20389;-84
2023/04/02 14:41:20;;;;;;;9.43;5.30;;;;;;;;;;8315442;28;20050;-84
2023/04/02 14:45:39;;;;;;;9.45;6.13;;;;;;;;;;8331538;28;20073;-81
2023/04/02 14:49:48;;;;;;;5.97;3.80;;;;;;;;;;8327178;28;20563;-84
2023/04/02 14:53:58;;;;;;;12.90;7.95;;;;;;;;;;8324214;28;20053;-82
2023/04/02 14:58:04;;;;;;;12.77;7.63;;;;;;;;;;8338188;28;20040;-85
2023/04/02 15:02:18;;;;;;;15.82;8.45;;;;;;;;;;8353091;28;20481;-84
2023/04/02 15:06:25;;;;;;;11.68;7.60;;;;;;;;;;8336209;28;20048;-85
2023/04/02 15:10:33;;;;;;;26.08;13.70;;;;;;;;;;8351063;28;20046;-82
2023/04/02 15:14:41;;;;;;;15.57;8.45;;;;;;;;;;8331758;28;20094;-85
2023/04/02 15:18:46;;;;;;;19.35;9.82;;;;;;;;;;8318629;28;20179;-81
2023/04/02 15:23:00;;;;;;;15.82;8.25;;;;;;;;;;8333828;28;20073;-84
2023/04/02 15:27:16;;;;;;;20.35;10.98;;;;;;;;;;8324452;28;20471;-83
2023/04/02 15:31:24;;;;;;;17.40;8.70;;;;;;;;;;8360735;28;20047;-85
2023/04/02 15:35:39;;;;;;;15.82;8.02;;;;;;;;;;8324621;28;20092;-86
2023/04/02 15:39:59;;;;;;;14.93;8.45;;;;;;;;;;8323641;28;20053;-84
2023/04/02 15:44:10;;;;;;;9.95;5.60;;;;;;;;;;8323002;28;20099;-84
2023/04/02 15:48:27;;;;;;;16.70;9.50;;;;;;;;;;8359599;28;20049;-83
2023/04/02 15:52:45;;;;;;;12.75;6.95;;;;;;;;;;8363235;28;20053;-83
2023/04/02 15:56:56;;;;;;;9.95;4.32;;;;;;;;;;8324521;28;20076;-83
2023/04/02 16:01:12;;;;;;;10.35;5.75;;;;;;;;;;8344423;28;20052;-82
2023/04/02 16:05:26;;;;;;;9.80;6.07;;;;;;;;;;8362697;28;20132;-83
2023/04/02 16:09:41;;;;;;;10.10;6.55;;;;;;;;;;8362897;28;20504;-84
2023/04/02 16:13:47;;;;;;;7.88;4.72;;;;;;;;;;8362323;28;20186;-83
2023/04/02 16:17:58;;;;;;;10.00;5.03;;;;;;;;;;8362108;28;20057;-83
2023/04/02 16:22:11;;;;;;;8.57;4.82;;;;;;;;;;8306718;28;20516;-84
2023/04/02 16:26:31;;;;;;;6.50;3.10;;;;;;;;;;8325207;28;20048;-86
2023/04/02 16:30:49;;;;;;;10.68;6.25;;;;;;;;;;8318892;28;20532;-83
2023/04/02 16:35:01;;;;;;;9.45;5.70;;;;;;;;;;8322072;28;20055;-83
2023/04/02 16:39:14;;;;;;;8.98;4.80;;;;;;;;;;8332910;28;20053;-83
2023/04/02 16:43:29;;;;;;;10.43;5.93;;;;;;;;;;8325121;28;20483;-83
2023/04/02 16:47:53;;;;;;;6.60;3.78;;;;;;;;;;8310940;28;20341;-84
2023/04/02 16:52:03;;;;;;;;;;;;;;;;;;8318028;28;20045;-83
2023/04/02 16:56:35;;;;;;;6.72;4.28;;;;;;;;;;8322379;28;19956;-84
2023/04/02 17:00:42;;;;;;;;;;;;;;;;;;8303870;28;20057;-84
2023/04/02 17:05:10;;;;;;;8.20;3.75;;;;;;;;;;8298523;28;19928;-82
2023/04/02 17:09:37;;;;;;;6.32;3.97;;;;;;;;;;8304167;28;20046;-83
2023/04/02 17:13:47;;;;;;;5.43;3.40;;;;;;;;;;8315042;28;20052;-84
2023/04/02 17:17:57;;;;;;;6.72;3.90;;;;;;;;;;8336806;28;20092;-83
2023/04/02 17:22:06;;;;;;;6.53;4.43;;;;;;;;;;8323314;28;20061;-83
2023/04/02 17:26:13;;;;;;;5.38;3.78;;;;;;;;;;8321182;28;20045;-83
2023/04/02 17:30:26;;;;;;;8.05;4.55;;;;;;;;;;8330488;28;20727;-84
2023/04/02 17:34:32;;;;;;;11.43;5.00;;;;;;;;;;8330687;28;20055;-83
2023/04/02 17:38:46;;;;;;;10.02;5.53;;;;;;;;;;8338109;28;20041;-83
2023/04/02 17:42:58;;;;;;;11.10;5.03;;;;;;;;;;8325812;28;20440;-84
2023/04/02 17:47:10;;;;;;;11.88;5.97;;;;;;;;;;8355247;28;20048;-84
2023/04/02 17:51:29;;;;;;;8.13;4.70;;;;;;;;;;8342346;28;20060;-84
2023/04/02 17:55:43;;;;;;;8.70;4.45;;;;;;;;;;8325800;28;20061;-82
2023/04/02 18:00:01;;;;;;;7.60;4.18;;;;;;;;;;8338179;28;20128;-83
2023/04/02 18:04:19;;;;;;;6.30;3.80;;;;;;;;;;8340048;28;20715;-84
2023/04/02 18:08:33;;;;;;;5.78;3.17;;;;;;;;;;8343047;28;20041;-84
2023/04/02 18:12:55;;;;;;;6.85;3.50;;;;;;;;;;8329034;28;20042;-81
2023/04/02 18:17:08;;;;;;;7.25;4.15;;;;;;;;;;8342007;28;20138;-85
2023/04/02 18:21:16;;;;;;;;;;;;;;;;;;8331211;28;20049;-81
2023/04/02 18:25:52;;;;;;;7.43;4.22;;;;;;;;;;8326213;28;19921;-89
2023/04/02 18:30:14;;;;;;;6.80;4.03;;;;;;;;;;8317558;28;20502;-80
2023/04/02 18:34:53;;;;;;;9.63;4.80;;;;;;;;;;8323326;28;20051;-86
2023/04/02 18:39:03;;;;;;;9.05;5.47;;;;;;;;;;8330080;28;20045;-79
2023/04/02 18:43:24;;;;;;;7.03;4.82;;;;;;;;;;8357650;28;20049;-84
2023/04/02 18:47:37;;;;;;;7.72;4.50;;;;;;;;;;8341777;28;20120;-82
2023/04/02 18:51:47;;;;;;;8.85;4.85;;;;;;;;;;8345826;28;20452;-79
2023/04/02 18:55:55;;;;;;;8.00;4.32;;;;;;;;;;8357313;28;20057;-81
2023/04/02 19:00:17;;;;;;;10.00;5.25;;;;;;;;;;8363544;28;20130;-87
2023/04/02 19:04:27;;;;;;;7.85;4.55;;;;;;;;;;8338565;28;20057;-82
2023/04/02 19:08:38;;;;;;;10.30;5.82;;;;;;;;;;8354703;28;20051;-83
2023/04/02 19:12:47;;;;;;;4.97;3.22;;;;;;;;;;8361126;28;20041;-88
2023/04/02 19:17:15;;;;;;;9.93;5.28;;;;;;;;;;8363972;28;20144;-82
2023/04/02 19:21:34;;;;;;;8.80;5.50;;;;;;;;;;8322524;28;20042;-81
2023/04/02 19:25:54;;;;;;;9.15;4.88;;;;;;;;;;8347689;28;20044;-82
2023/04/02 19:30:10;;;;;;;10.75;6.07;;;;;;;;;;8362894;28;20047;-86
2023/04/02 19:34:31;;;;;;;9.52;5.45;;;;;;;;;;8341452;28;20484;-88
2023/04/02 19:38:59;;;;;;;9.73;5.30;;;;;;;;;;8355497;28;20045;-85
2023/04/02 19:43:04;;;;;;;8.38;5.03;;;;;;;;;;8359790;28;20132;-85
2023/04/02 19:47:13;;;;;;;6.65;4.13;;;;;;;;;;8343702;28;20041;-81
2023/04/02 19:51:22;;;;;;;8.93;4.70;;;;;;;;;;8340967;28;20071;-80
2023/04/02 19:55:28;;;;;;;20.48;8.82;;;;;;;;;;8355086;28;20080;-84
2023/04/02 19:59:33;;;;;;;9.02;4.32;;;;;;;;;;8361851;28;20405;-84
2023/04/02 20:03:38;;;;;;;21.95;8.85;;;;;;;;;;8346249;28;20041;-80
2023/04/02 20:07:44;;;;;;;7.30;4.22;;;;;;;;;;8360894;28;20087;-81
2023/04/02 20:11:49;;;;;;;10.20;4.47;;;;;;;;;;8348866;28;20489;-84
2023/04/02 20:15:53;;;;;;;15.65;6.45;;;;;;;;;;8289471;28;2043030;-80
2023/04/02 20:19:59;;;;;;;16.77;5.93;;;;;;;;;;8362868;28;20122;-83
2023/04/02 20:24:06;;;;;;;14.85;6.38;;;;;;;;;;8346935;28;20052;-84
2023/04/02 20:28:10;;;;;;;16.35;4.20;;;;;;;;;;8351242;28;20049;-82
2023/04/02 20:32:16;;;;;;;5.90;2.85;;;;;;;;;;8344747;28;20045;-79
2023/04/02 20:36:20;;;;;;;8.43;4.43;;;;;;;;;;8343149;28;20041;-84
2023/04/02 20:40:25;;;;;;;7.68;4.20;;;;;;;;;;8358585;28;20053;-82
2023/04/02 20:44:30;;;;;;;8.23;4.80;;;;;;;;;;8347972;28;20045;-82
2023/04/02 20:48:34;;;;;;;8.48;4.57;;;;;;;;;;8340767;28;20055;-85
2023/04/02 20:52:38;;;;;;;13.15;7.25;;;;;;;;;;8342228;28;20046;-83
2023/04/02 20:56:43;;;;;;;2.70;2.15;;;;;;;;;;8336517;28;20469;-81
2023/04/02 21:00:46;;;;;;;7.07;3.85;;;;;;;;;;8361924;28;20060;-80
2023/04/02 21:04:49;;;;;;;5.55;3.80;;;;;;;;;;8341707;28;20064;-84
2023/04/02 21:08:52;;;;;;;6.68;3.53;;;;;;;;;;8341698;28;20148;-80
2023/04/02 21:12:56;;;;;;;7.10;4.30;;;;;;;;;;8352884;28;20381;-81
2023/04/02 21:16:59;;;;;;;8.38;4.70;;;;;;;;;;8336411;28;20735;-83
2023/04/02 21:21:03;;;;;;;9.40;4.53;;;;;;;;;;8351694;28;20071;-82
2023/04/02 21:25:06;;;;;;;6.65;4.53;;;;;;;;;;8355076;28;20424;-81
2023/04/02 21:29:12;;;;;;;7.47;4.60;;;;;;;;;;8346577;28;20053;-84
2023/04/02 21:33:14;;;;;;;6.78;3.65;;;;;;;;;;8350155;28;20046;-85
2023/04/02 21:37:17;;;;;;;10.20;5.45;;;;;;;;;;8334202;28;20116;-81
2023/04/02 21:41:22;;;;;;;9.38;4.93;;;;;;;;;;8344188;28;20045;-85
2023/04/02 21:45:26;;;;;;;7.88;4.40;;;;;;;;;;8325864;28;20052;-81
2023/04/02 21:49:29;;;;;;;11.75;5.20;;;;;;;;;;8328495;28;20536;-83
2023/04/02 21:53:33;;;;;;;9.93;5.43;;;;;;;;;;8312957;28;20409;-83
2023/04/02 21:57:36;;;;;;;37.83;12.48;;;;;;;;;;8318979;28;20072;-82
2023/04/02 22:01:42;;;;;;;9.52;5.20;;;;;;;;;;8351335;28;20044;-85
2023/04/02 22:05:45;;;;;;;10.68;5.25;;;;;;;;;;8364210;28;20442;-83
2023/04/02 22:09:48;;;;;;;8.27;4.80;;;;;;;;;;8343453;28;20048;-87
2023/04/02 22:13:52;;;;;;;9.10;5.07;;;;;;;;;;8331767;28;20049;-85
2023/04/02 22:17:56;;;;;;;13.20;5.85;;;;;;;;;;8342779;28;20140;-82
2023/04/02 22:21:59;;;;;;;12.10;4.93;;;;;;;;;;8311670;28;20138;-83
2023/04/02 22:26:03;;;;;;;8.43;3.85;;;;;;;;;;8338664;28;20119;-86
2023/04/02 22:30:08;;;;;;;18.98;6.72;;;;;;;;;;8344468;28;20397;-85
2023/04/02 22:34:12;;;;;;;13.27;6.22;;;;;;;;;;8331090;28;20089;-88
2023/04/02 22:38:15;;;;;;;8.00;4.82;;;;;;;;;;8333314;28;20147;-87
2023/04/02 22:42:18;;;;;;;10.45;5.05;;;;;;;;;;8344552;28;20072;-93
2023/04/02 22:46:22;;;;;;;10.52;5.07;;;;;;;;;;8343045;28;20037;-92
2023/04/02 22:50:26;;;;;;;7.35;4.53;;;;;;;;;;8353968;28;20053;-82
2023/04/02 22:54:29;;;;;;;11.18;6.65;;;;;;;;;;8337621;28;20045;-83
2023/04/02 22:58:32;;;;;;;12.68;6.25;;;;;;;;;;8341444;28;20044;-82
2023/04/02 23:02:36;;;;;;;15.02;6.07;;;;;;;;;;8341847;28;20045;-84
2023/04/02 23:06:40;;;;;;;7.07;3.50;;;;;;;;;;8347854;28;20053;-83
2023/04/02 23:10:43;;;;;;;11.88;5.50;;;;;;;;;;8346151;28;20034;-83
2023/04/02 23:14:46;;;;;;;8.82;5.15;;;;;;;;;;8348484;28;20125;-83
2023/04/02 23:18:49;;;;;;;8.68;4.68;;;;;;;;;;8348606;28;20049;-83
2023/04/02 23:22:53;;;;;;;9.48;4.80;;;;;;;;;;8349995;28;20057;-91
2023/04/02 23:26:57;;;;;;;8.80;5.15;;;;;;;;;;8357095;28;20400;-91
2023/04/02 23:31:02;;;;;;;6.75;4.25;;;;;;;;;;8344088;28;20095;-85
2023/04/02 23:35:05;;;;;;;9.50;4.45;;;;;;;;;;8362778;28;20443;-83
2023/04/02 23:39:12;;;;;;;9.15;4.82;;;;;;;;;;8358064;28;20051;-84
2023/04/02 23:43:15;;;;;;;6.45;3.67;;;;;;;;;;8354423;28;20630;-81
2023/04/02 23:47:18;;;;;;;14.18;4.32;;;;;;;;;;8357243;28;20056;-81
2023/04/02 23:51:22;;;;;;;9.90;3.95;;;;;;;;;;8346810;28;20553;-82
2023/04/02 23:55:26;;;;;;;10.82;4.20;;;;;;;;;;8344064;28;20037;-83
2023/04/02 23:59:29;;;;;;;3.47;2.80;;;;;;;;;;8347811;28;20094;-81
